Terminal Aerodrome Forecast
Issued by NWS Albany, NY

Home | Current Version | Previous Version | Text Only | Print | Product List | Glossary On
Versions: 1 2 3 4 5 6 7 8 9 10 11 12 13 14 15 16 17 18 19 20
456
FTUS41 KALY 250153 AAB
TAFGFL
TAF AMD
KGFL 250153Z 2502/2524 00000KT 6SM BR SKC
      TEMPO 2502/2506 1/2SM FG BKN003
     FM250600 00000KT 1 1/2SM BR FEW003
     FM250900 00000KT 1/2SM FG BKN003
     FM251230 VRB04KT P6SM FEW250=

USA.gov is the U.S. government's official web portal to all federal, state and local government web resources and services.